Decoded Metar for KBBG ( in _UNIDENTIFIED) (IATA:N/A) | Meteo·Mobile Aviation Weather
aviador You're here:

KBBG Decoded Metar

in _UNIDENTIFIED
Report Time2018-11-19 08:35:00
UTC Time2018-11-19 08:58:47
Flight Rules lifr LIFR
WindCalm
Visibility2414 m
Phenomena:Mist
Clouds:Overcast 002 Hf
Ceiling200 ft
Temp01°C (ISA -11)
Dew Point01°C (100% RH)
AAT-0.8°C
QNH1021 hPa
Density Alt-262 ft
Elevation1,302 ft
Report Wrong Elevation
Raw Report
KBBG 190835Z AUTO 00000KT 1 1/2SM BR OVC002 01/01 A3014 RMK
AO2=

Extra information for KBBG:More info

Metar Taf Metar & Taf Last 4 Metars F.Rules Stats Wind Profile Meteogram Temp Stats Metar ALERT Operation Metar Decoded Social comments